Time;durP1;ratioP1;P1;durP2;ratioP2;P2;SDS_P1;SDS_P2;PMS_P1;PMS_P2;Temp;Humidity;BMP_temperature;BMP_pressure;BME280_temperature;BME280_humidity;BME280_pressure;Samples;Min_cycle;Max_cycle;Signal;HPM_P1;HPM_P2
2023/12/05 00:00:50;;;;;;;25.38;11.90;;;;;;;-3.26;100.00;100265.94;5000761;28;20422;-77
2023/12/05 00:03:23;;;;;;;24.17;11.65;;;;;;;-3.29;100.00;100266.34;5010603;28;21081;-77
2023/12/05 00:05:51;;;;;;;26.05;12.25;;;;;;;-3.34;100.00;100252.78;5005800;28;20541;-77
2023/12/05 00:08:25;;;;;;;25.75;12.15;;;;;;;-3.27;100.00;100256.31;5000342;28;20425;-77
2023/12/05 00:10:58;;;;;;;27.63;12.77;;;;;;;-3.32;100.00;100258.75;4999937;28;20437;-78
2023/12/05 00:13:27;;;;;;;25.83;12.13;;;;;;;-3.34;100.00;100253.63;5013628;28;20427;-77
2023/12/05 00:15:55;;;;;;;26.35;11.90;;;;;;;-3.38;100.00;100251.53;4998161;28;20412;-78
2023/12/05 00:18:28;;;;;;;27.75;12.68;;;;;;;-3.33;100.00;100252.63;4996456;28;20430;-78
2023/12/05 00:21:01;;;;;;;24.38;12.18;;;;;;;-3.41;100.00;100242.16;5001190;28;20470;-77
2023/12/05 00:23:31;;;;;;;26.35;12.23;;;;;;;-3.43;100.00;100244.16;5008369;28;20424;-77
2023/12/05 00:26:04;;;;;;;25.70;12.23;;;;;;;-3.45;100.00;100240.91;5007188;28;20961;-78
2023/12/05 00:28:37;;;;;;;24.45;12.23;;;;;;;-3.47;100.00;100243.72;5000096;28;20454;-78
2023/12/05 00:31:10;;;;;;;25.50;12.37;;;;;;;-3.49;100.00;100232.50;5002469;28;20425;-77
2023/12/05 00:33:39;;;;;;;27.35;12.40;;;;;;;-3.54;100.00;100229.59;4999545;28;20936;-77
2023/12/05 00:36:08;;;;;;;27.50;12.52;;;;;;;-3.58;100.00;100223.03;5003959;28;20432;-77
2023/12/05 00:38:42;;;;;;;26.88;12.30;;;;;;;-3.56;100.00;100223.66;5007593;28;20429;-77
2023/12/05 00:41:15;;;;;;;27.70;12.60;;;;;;;-3.61;100.00;100220.75;5007853;28;20436;-77
2023/12/05 00:43:45;;;;;;;27.37;12.77;;;;;;;-3.64;100.00;100227.28;5002438;28;20608;-77
2023/12/05 00:46:18;;;;;;;26.15;12.63;;;;;;;-3.68;100.00;100219.91;5004079;28;20449;-77
2023/12/05 00:48:51;;;;;;;28.23;12.50;;;;;;;-3.56;100.00;100225.47;5006062;28;20436;-77
2023/12/05 00:51:20;;;;;;;27.70;12.50;;;;;;;-3.66;100.00;100218.72;5003867;28;20759;-77
2023/12/05 00:53:54;;;;;;;25.90;12.30;;;;;;;-3.70;100.00;100221.94;5002556;28;20926;-78
2023/12/05 00:56:27;;;;;;;29.50;12.93;;;;;;;-3.68;100.00;100220.72;5006514;28;20424;-77
2023/12/05 00:59:00;;;;;;;25.63;12.18;;;;;;;-3.62;100.00;100222.63;5002326;28;20426;-77
2023/12/05 01:01:34;;;;;;;26.85;12.48;;;;;;;-3.62;100.00;100232.41;4999697;28;20425;-77
2023/12/05 01:04:02;;;;;;;28.00;12.65;;;;;;;-3.58;100.00;100236.31;5007706;28;20427;-77
2023/12/05 01:06:35;;;;;;;27.42;13.00;;;;;;;-3.54;100.00;100228.78;5002505;28;20444;-77
2023/12/05 01:09:06;;;;;;;28.47;12.67;;;;;;;-3.53;100.00;100223.25;5005610;28;20905;-77
2023/12/05 01:11:39;;;;;;;27.67;12.88;;;;;;;-3.48;100.00;100228.81;5003553;28;20432;-78
2023/12/05 01:14:07;;;;;;;24.63;12.38;;;;;;;-3.46;100.00;100210.78;5007624;28;21259;-78
2023/12/05 01:16:35;;;;;;;26.00;12.50;;;;;;;-3.46;100.00;100215.31;5001582;28;20410;-77
2023/12/05 01:19:08;;;;;;;27.48;13.23;;;;;;;-3.50;100.00;100204.22;5000712;28;20425;-78
2023/12/05 01:21:42;;;;;;;26.30;12.15;;;;;;;-3.43;100.00;100201.59;5001760;28;20437;-78
2023/12/05 01:24:16;;;;;;;26.83;12.57;;;;;;;-3.40;100.00;100200.38;5001286;28;20422;-77
2023/12/05 01:26:49;;;;;;;26.77;13.05;;;;;;;-3.43;100.00;100199.75;5001141;28;20423;-78
2023/12/05 01:29:18;;;;;;;28.55;13.38;;;;;;;-3.21;100.00;100204.94;5006227;28;20421;-78
2023/12/05 01:31:51;;;;;;;28.85;12.45;;;;;;;-3.26;100.00;100192.25;5003331;28;20422;-77
2023/12/05 01:34:19;;;;;;;27.85;13.35;;;;;;;-3.43;100.00;100198.94;5003545;28;20428;-78
2023/12/05 01:36:47;;;;;;;27.05;13.13;;;;;;;-3.39;100.00;100194.06;4998047;28;20418;-77
2023/12/05 01:39:22;;;;;;;29.23;13.48;;;;;;;-3.32;100.00;100193.03;5003608;28;20939;-78
2023/12/05 01:41:50;;;;;;;27.70;12.77;;;;;;;-3.36;100.00;100183.81;5000772;28;20430;-77
2023/12/05 01:44:23;;;;;;;27.73;12.73;;;;;;;-3.38;100.00;100196.50;5000881;28;20431;-78
2023/12/05 01:46:56;;;;;;;28.38;13.63;;;;;;;-3.39;100.00;100194.88;5003490;28;20421;-77
2023/12/05 01:49:24;;;;;;;27.77;12.85;;;;;;;-3.38;100.00;100190.34;5001646;28;20417;-77
2023/12/05 01:51:58;;;;;;;27.85;12.48;;;;;;;-3.35;100.00;100192.63;4999268;28;20433;-77
2023/12/05 01:54:29;;;;;;;29.08;13.45;;;;;;;-3.36;100.00;100191.78;5015526;28;20434;-77
2023/12/05 01:57:03;;;;;;;29.65;13.55;;;;;;;-3.35;100.00;100189.97;5002123;28;20413;-78
2023/12/05 01:59:31;;;;;;;30.10;13.07;;;;;;;-3.36;100.00;100193.66;4998946;28;20939;-77
2023/12/05 02:02:01;;;;;;;29.08;13.45;;;;;;;-3.30;100.00;100193.66;5001506;28;20410;-78
2023/12/05 02:04:34;;;;;;;29.38;13.77;;;;;;;-3.39;100.00;100181.56;5001258;28;21029;-78
2023/12/05 02:07:08;;;;;;;28.02;13.18;;;;;;;-3.40;100.00;100189.75;4998485;28;20437;-78
2023/12/05 02:09:44;;;;;;;29.73;13.68;;;;;;;-3.30;100.00;100172.38;5012098;28;20426;-77
2023/12/05 02:12:17;;;;;;;27.23;13.23;;;;;;;-3.26;100.00;100181.59;4997414;28;20427;-77
2023/12/05 02:14:46;;;;;;;29.60;13.50;;;;;;;-3.29;100.00;100181.97;5004230;28;20411;-77
2023/12/05 02:17:25;;;;;;;28.50;13.98;;;;;;;-3.39;100.00;100176.25;5003944;28;20430;-77
2023/12/05 02:20:06;;;;;;;27.80;13.27;;;;;;;-3.35;100.00;100179.34;5006145;28;20422;-77
2023/12/05 02:23:04;;;;;;;28.30;12.95;;;;;;;-3.39;100.00;100164.78;5001667;28;20415;-77
2023/12/05 02:25:53;;;;;;;29.60;13.68;;;;;;;-3.37;100.00;100162.72;5001718;28;20794;-77
2023/12/05 02:28:28;;;;;;;30.40;14.23;;;;;;;-3.43;100.00;100167.81;4996800;28;20427;-77
2023/12/05 02:30:56;;;;;;;30.57;13.93;;;;;;;-3.39;100.00;100162.13;4997934;28;20517;-78
2023/12/05 02:33:24;;;;;;;32.40;14.25;;;;;;;-3.45;100.00;100169.88;5000470;28;20413;-77
2023/12/05 02:36:02;;;;;;;30.43;13.60;;;;;;;-3.40;100.00;100169.28;5015486;28;20426;-77
2023/12/05 02:38:38;;;;;;;32.78;14.75;;;;;;;-3.38;100.00;100167.25;5005054;28;20901;-78
2023/12/05 02:41:12;;;;;;;31.05;14.75;;;;;;;-3.40;100.00;100163.94;5005466;28;20437;-77
2023/12/05 02:43:55;;;;;;;29.73;13.98;;;;;;;-3.20;100.00;100149.88;5002743;28;20426;-77
2023/12/05 02:46:24;;;;;;;31.90;14.27;;;;;;;-3.40;100.00;100149.84;4998247;28;20431;-77
2023/12/05 02:48:58;;;;;;;28.52;13.80;;;;;;;-3.33;100.00;100143.53;5004477;28;20426;-78
2023/12/05 02:51:31;;;;;;;32.25;14.55;;;;;;;-3.36;100.00;100137.78;5002426;28;20429;-77
2023/12/05 02:54:01;;;;;;;33.15;15.00;;;;;;;-3.32;100.00;100144.31;4997922;28;20415;-78
2023/12/05 02:56:35;;;;;;;31.77;15.30;;;;;;;-3.35;100.00;100134.09;5005384;28;20417;-77
2023/12/05 02:59:10;;;;;;;30.23;14.70;;;;;;;-3.36;100.00;100135.09;5014661;28;20425;-78
2023/12/05 03:01:43;;;;;;;34.03;15.52;;;;;;;-3.41;100.00;100138.38;5012817;28;20430;-77
2023/12/05 03:04:11;;;;;;;33.78;14.93;;;;;;;-3.35;100.00;100128.78;4999891;28;20438;-78
2023/12/05 03:06:45;;;;;;;34.92;15.32;;;;;;;-3.46;100.00;100136.31;4999646;28;20422;-78
2023/12/05 03:09:18;;;;;;;32.53;15.18;;;;;;;-3.43;100.00;100133.25;4999619;28;20422;-78
2023/12/05 03:11:46;;;;;;;34.42;15.43;;;;;;;-3.40;100.00;100133.88;5000050;28;20410;-78
2023/12/05 03:14:21;;;;;;;34.58;15.25;;;;;;;-3.42;100.00;100134.88;4997664;28;20418;-77
2023/12/05 03:16:54;;;;;;;33.40;15.63;;;;;;;-3.38;100.00;100137.13;5004621;28;20431;-78
2023/12/05 03:19:28;;;;;;;33.13;15.23;;;;;;;-3.31;100.00;100124.69;4997625;28;20917;-78
2023/12/05 03:22:01;;;;;;;33.90;15.52;;;;;;;-3.25;100.00;100137.16;4997614;28;20429;-78
2023/12/05 03:24:29;;;;;;;34.58;16.27;;;;;;;-3.38;100.00;100132.66;4998536;28;20429;-78
2023/12/05 03:26:57;;;;;;;35.60;16.08;;;;;;;-3.40;100.00;100125.91;5005373;28;20404;-78
2023/12/05 03:29:32;;;;;;;36.20;16.20;;;;;;;-3.34;100.00;100130.38;5001404;28;20750;-77
2023/12/05 03:32:06;;;;;;;34.08;16.17;;;;;;;-3.37;100.00;100121.00;4997608;28;20422;-77
2023/12/05 03:34:39;;;;;;;35.55;16.33;;;;;;;-3.30;100.00;100126.31;4999600;28;20508;-77
2023/12/05 03:37:12;;;;;;;38.95;17.40;;;;;;;-3.42;100.00;100124.25;5006133;28;20929;-78
2023/12/05 03:39:46;;;;;;;35.75;16.73;;;;;;;-3.40;100.00;100123.22;4999233;28;20433;-77
2023/12/05 03:42:19;;;;;;;38.17;17.87;;;;;;;-3.37;100.00;100136.97;5005865;28;20442;-77
2023/12/05 03:44:53;;;;;;;36.00;16.95;;;;;;;-3.26;100.00;100131.03;4999299;28;20441;-77
2023/12/05 03:47:27;;;;;;;40.65;17.88;;;;;;;-3.36;100.00;100138.56;5005006;28;20430;-77
2023/12/05 03:50:00;;;;;;;37.45;17.20;;;;;;;-3.38;100.00;100134.47;5003782;28;20436;-78
2023/12/05 03:52:33;;;;;;;36.45;17.02;;;;;;;-3.39;100.00;100133.66;4995874;28;20423;-77
2023/12/05 03:55:06;;;;;;;38.00;17.38;;;;;;;-3.32;100.00;100126.50;4999073;28;20447;-77
2023/12/05 03:57:39;;;;;;;37.30;17.55;;;;;;;-3.38;100.00;100123.84;5012744;28;20423;-78
2023/12/05 04:00:15;;;;;;;39.95;17.80;;;;;;;-3.34;100.00;100117.09;4997904;28;20421;-78
2023/12/05 04:02:48;;;;;;;37.67;17.20;;;;;;;-3.15;100.00;100126.13;5002335;28;20428;-77
2023/12/05 04:05:22;;;;;;;36.58;16.83;;;;;;;-3.29;100.00;100135.94;5004875;28;20425;-77
2023/12/05 04:07:55;;;;;;;38.15;17.10;;;;;;;-3.23;100.00;100131.66;4996587;28;20440;-78
2023/12/05 04:10:23;;;;;;;37.03;17.15;;;;;;;-3.25;100.00;100121.22;5005546;28;20432;-78
2023/12/05 04:12:57;;;;;;;38.38;17.15;;;;;;;-3.13;100.00;100124.09;5003825;28;20420;-77
2023/12/05 04:15:31;;;;;;;37.70;17.02;;;;;;;-3.30;100.00;100128.97;4996481;28;20429;-77
2023/12/05 04:18:05;;;;;;;38.30;17.20;;;;;;;-3.10;100.00;100131.66;5001911;28;20457;-77
2023/12/05 04:20:38;;;;;;;38.55;18.15;;;;;;;-3.20;100.00;100124.09;5001893;28;20777;-77
2023/12/05 04:23:11;;;;;;;38.28;17.17;;;;;;;-3.25;100.00;100124.69;5002045;28;20417;-77
2023/12/05 04:25:44;;;;;;;38.63;18.15;;;;;;;-3.23;100.00;100123.66;4996688;28;20961;-77
2023/12/05 04:28:12;;;;;;;40.65;17.75;;;;;;;-3.03;100.00;100121.03;4998347;28;20415;-77
2023/12/05 04:30:47;;;;;;;39.20;18.00;;;;;;;-3.19;100.00;100122.22;4998613;28;20441;-77
2023/12/05 04:33:20;;;;;;;40.45;18.23;;;;;;;-3.37;100.00;100121.00;4997987;28;20428;-77
2023/12/05 04:35:54;;;;;;;38.35;18.25;;;;;;;-3.36;100.00;100119.16;5004955;28;20455;-77
2023/12/05 04:38:22;;;;;;;39.05;18.13;;;;;;;-3.29;100.00;100128.75;4998815;28;20907;-77
2023/12/05 04:40:55;;;;;;;41.75;18.48;;;;;;;-3.12;100.00;100120.41;5001390;28;20459;-77
2023/12/05 04:43:28;;;;;;;42.50;19.07;;;;;;;-3.17;100.00;100125.53;5000100;28;20434;-78
2023/12/05 04:46:03;;;;;;;41.33;18.83;;;;;;;-3.31;100.00;100120.19;5011005;28;20428;-77
2023/12/05 04:48:31;;;;;;;43.42;18.52;;;;;;;-3.36;100.00;100124.47;5013217;28;20412;-77
2023/12/05 04:51:05;;;;;;;39.00;18.50;;;;;;;-3.24;100.00;100122.84;4997298;28;20437;-77
2023/12/05 04:53:38;;;;;;;42.70;18.67;;;;;;;-3.25;100.00;100124.69;5004085;28;20434;-78
2023/12/05 04:56:12;;;;;;;43.40;19.27;;;;;;;-3.42;100.00;100123.44;4998824;28;20432;-77
2023/12/05 04:58:45;;;;;;;44.00;20.05;;;;;;;-3.40;100.00;100129.34;5011477;28;20434;-78
2023/12/05 05:01:20;;;;;;;44.22;20.45;;;;;;;-3.43;100.00;100121.78;5011929;28;20449;-78
2023/12/05 05:03:53;;;;;;;47.88;19.33;;;;;;;-3.25;100.00;100123.88;4997616;28;20430;-77
2023/12/05 05:06:26;;;;;;;43.15;19.48;;;;;;;-3.35;100.00;100115.47;5004172;28;20421;-77
2023/12/05 05:08:59;;;;;;;42.90;19.30;;;;;;;-3.42;100.00;100118.13;4998977;28;20473;-77
2023/12/05 05:11:33;;;;;;;44.83;19.63;;;;;;;-3.44;100.00;100114.81;4999491;28;20410;-77
2023/12/05 05:14:06;;;;;;;46.93;20.90;;;;;;;-3.51;100.00;100121.97;4997181;28;20428;-77
2023/12/05 05:16:40;;;;;;;44.90;20.67;;;;;;;-3.40;100.00;100117.91;5001829;28;20429;-77
2023/12/05 05:19:13;;;;;;;46.95;20.05;;;;;;;-3.38;100.00;100116.69;5002690;28;20422;-78
2023/12/05 05:21:47;;;;;;;44.13;20.40;;;;;;;-3.21;100.00;100117.13;5005915;28;20432;-78
2023/12/05 05:24:20;;;;;;;43.58;18.98;;;;;;;-3.28;100.00;100119.75;4999913;28;20973;-78
2023/12/05 05:26:54;;;;;;;45.13;19.98;;;;;;;-3.49;100.00;100114.63;5001470;28;20426;-77
2023/12/05 05:29:27;;;;;;;43.88;20.10;;;;;;;-3.44;100.00;100123.63;5000474;28;20425;-77
2023/12/05 05:32:01;;;;;;;42.80;19.67;;;;;;;-3.51;100.00;100122.78;5004841;28;20431;-77
2023/12/05 05:34:34;;;;;;;45.38;19.67;;;;;;;-3.43;100.00;100111.97;5001699;28;20427;-77
2023/12/05 05:37:02;;;;;;;45.33;20.25;;;;;;;-3.51;100.00;100111.34;4999562;28;20746;-77
2023/12/05 05:39:36;;;;;;;44.88;19.90;;;;;;;-3.40;100.00;100107.25;5003931;28;20432;-78
2023/12/05 05:42:09;;;;;;;46.83;20.48;;;;;;;-3.46;100.00;100117.69;4979365;28;20419;-77
2023/12/05 05:44:44;;;;;;;48.83;20.50;;;;;;;-3.54;100.00;100115.22;4998031;28;20439;-77
2023/12/05 05:47:13;;;;;;;49.28;20.52;;;;;;;-3.31;100.00;100114.84;5000487;28;20445;-77
2023/12/05 05:49:47;;;;;;;47.40;21.55;;;;;;;-3.58;100.00;100119.28;4997892;28;20426;-77
2023/12/05 05:52:20;;;;;;;51.35;22.05;;;;;;;-3.58;100.00;100124.59;4990387;28;20417;-77
2023/12/05 05:54:53;;;;;;;47.90;20.92;;;;;;;-3.58;100.00;100124.59;5004980;28;20437;-77
2023/12/05 05:57:28;;;;;;;50.25;21.55;;;;;;;-3.49;100.00;100117.28;5000053;28;20428;-77
2023/12/05 06:00:01;;;;;;;47.38;21.13;;;;;;;-3.61;100.00;100117.03;4978707;28;20451;-77
2023/12/05 06:02:35;;;;;;;46.30;20.30;;;;;;;-3.32;100.00;100121.19;4996958;28;20424;-77
2023/12/05 06:05:04;;;;;;;52.25;21.70;;;;;;;-3.49;100.00;100115.44;4995741;28;20893;-77
2023/12/05 06:07:32;;;;;;;51.13;22.13;;;;;;;-3.60;100.00;100114.19;4996185;28;20420;-77
2023/12/05 06:10:06;;;;;;;47.85;21.20;;;;;;;-3.52;100.00;100112.34;4997837;28;20436;-78
2023/12/05 06:12:34;;;;;;;52.30;21.43;;;;;;;-3.48;100.00;100101.13;4995178;28;20811;-78
2023/12/05 06:15:08;;;;;;;48.47;21.15;;;;;;;-3.33;100.00;100108.09;4993799;28;20445;-77
2023/12/05 06:17:43;;;;;;;45.33;20.77;;;;;;;-3.43;100.00;100111.16;4998509;28;20448;-77
2023/12/05 06:20:16;;;;;;;48.83;22.00;;;;;;;-3.45;100.00;100119.34;4999660;28;20458;-77
2023/12/05 06:22:49;;;;;;;43.47;20.08;;;;;;;-3.50;100.00;100097.81;5002168;28;21207;-78
2023/12/05 06:25:23;;;;;;;51.47;22.33;;;;;;;-3.53;100.00;100106.22;4998483;28;20429;-77
2023/12/05 06:27:51;;;;;;;49.75;22.17;;;;;;;-3.40;100.00;100105.41;4998511;28;20434;-78
2023/12/05 06:30:20;;;;;;;46.92;20.60;;;;;;;-3.40;100.00;100108.06;4998339;28;20461;-79
2023/12/05 06:32:55;;;;;;;46.65;21.30;;;;;;;-3.40;100.00;100101.94;5010988;28;20882;-78
2023/12/05 06:35:28;;;;;;;48.78;21.70;;;;;;;-3.61;100.00;100109.88;5000932;28;20546;-77
2023/12/05 06:38:01;;;;;;;49.83;22.20;;;;;;;-3.43;100.00;100108.50;4999473;28;20441;-78
2023/12/05 06:40:30;;;;;;;49.92;21.33;;;;;;;-3.40;100.00;100102.75;5003361;28;20432;-80
2023/12/05 06:42:58;;;;;;;50.17;23.13;;;;;;;-3.43;100.00;100105.81;5001936;28;20432;-79
2023/12/05 06:45:27;;;;;;;55.15;23.70;;;;;;;-3.63;100.00;100106.59;4999007;28;20456;-79
2023/12/05 06:48:01;;;;;;;56.85;23.30;;;;;;;-3.52;100.00;100115.00;4995912;28;20888;-79
2023/12/05 06:50:35;;;;;;;51.88;22.38;;;;;;;-3.46;100.00;100111.56;5000732;28;20429;-79
2023/12/05 06:53:08;;;;;;;48.08;21.15;;;;;;;-3.44;100.00;100113.00;5003883;28;20839;-79
2023/12/05 06:55:42;;;;;;;56.38;22.80;;;;;;;-3.49;100.00;100109.31;4999004;28;20441;-79
2023/12/05 06:58:15;;;;;;;50.60;22.30;;;;;;;-3.44;100.00;100114.81;5003947;28;20433;-79
2023/12/05 07:00:48;;;;;;;49.47;21.75;;;;;;;-3.31;100.00;100111.38;5002677;28;20436;-79
2023/12/05 07:03:18;;;;;;;49.03;21.92;;;;;;;-3.50;100.00;100107.66;5000348;28;20428;-79
2023/12/05 07:05:46;;;;;;;52.70;23.13;;;;;;;-3.54;100.00;100114.41;5002328;28;20450;-79
2023/12/05 07:08:19;;;;;;;50.65;22.58;;;;;;;-3.50;100.00;100115.63;4998322;28;20430;-79
2023/12/05 07:10:48;;;;;;;49.95;22.30;;;;;;;-3.46;100.00;100111.56;4999718;28;20440;-79
2023/12/05 07:13:21;;;;;;;48.22;20.85;;;;;;;-3.35;100.00;100108.31;5000860;28;20431;-79
2023/12/05 07:15:54;;;;;;;45.95;20.95;;;;;;;-3.33;100.00;100105.44;4996531;28;20434;-79
2023/12/05 07:18:29;;;;;;;54.03;22.52;;;;;;;-3.42;100.00;100107.47;5005303;28;20437;-79
2023/12/05 07:21:02;;;;;;;49.50;21.40;;;;;;;-3.28;100.00;100114.44;5002789;28;20445;-79
2023/12/05 07:23:30;;;;;;;50.13;22.85;;;;;;;-3.25;100.00;100116.69;5001833;28;20431;-79
2023/12/05 07:26:04;;;;;;;51.38;21.58;;;;;;;-3.33;100.00;100110.75;5006977;28;20435;-79
2023/12/05 07:28:37;;;;;;;47.53;21.15;;;;;;;-3.30;100.00;100105.00;5003315;28;20437;-79
2023/12/05 07:31:11;;;;;;;44.20;18.98;;;;;;;-3.23;100.00;100121.00;5000922;28;20435;-79
2023/12/05 07:33:46;;;;;;;52.75;22.05;;;;;;;-3.37;100.00;100117.50;5017071;28;20430;-79
2023/12/05 07:36:14;;;;;;;46.10;21.60;;;;;;;-3.30;100.00;100115.66;5002405;28;20432;-79
2023/12/05 07:38:48;;;;;;;50.63;21.40;;;;;;;-3.33;100.00;100124.06;5012845;28;20453;-79
2023/12/05 07:41:22;;;;;;;52.50;22.95;;;;;;;-3.42;100.00;100126.09;5014660;28;20772;-79
2023/12/05 07:43:55;;;;;;;49.58;21.70;;;;;;;-3.15;100.00;100123.47;5009976;28;20436;-79
2023/12/05 07:46:23;;;;;;;46.90;21.03;;;;;;;-3.29;100.00;100122.63;4998878;28;20413;-79
2023/12/05 07:48:53;;;;;;;53.42;23.70;;;;;;;-3.42;100.00;100113.59;5011488;28;20428;-78
2023/12/05 07:51:21;;;;;;;51.50;22.48;;;;;;;-3.41;100.00;100122.41;5004563;28;20417;-79
2023/12/05 07:53:51;;;;;;;54.33;23.80;;;;;;;-3.45;100.00;100121.19;4998275;28;20928;-79
2023/12/05 07:56:24;;;;;;;50.55;22.80;;;;;;;-3.36;100.00;100132.44;5002973;28;20429;-80
2023/12/05 07:58:52;;;;;;;51.50;23.73;;;;;;;-3.25;100.00;100126.53;5001005;28;20862;-79
2023/12/05 08:01:25;;;;;;;53.10;22.80;;;;;;;-3.17;100.00;100129.00;4995519;28;20511;-79
2023/12/05 08:03:57;;;;;;;53.33;23.08;;;;;;;-3.36;100.00;100138.56;4997685;28;20409;-79
2023/12/05 08:06:30;;;;;;;54.08;23.67;;;;;;;-3.42;100.00;100123.44;4997747;28;20438;-79
2023/12/05 08:09:04;;;;;;;55.08;23.83;;;;;;;-3.32;100.00;100133.69;5003012;28;20447;-79
2023/12/05 08:11:38;;;;;;;55.27;24.10;;;;;;;-3.29;100.00;100134.09;5013313;28;20422;-79
2023/12/05 08:14:11;;;;;;;55.33;24.45;;;;;;;-3.22;100.00;100134.09;5017284;28;20445;-79
2023/12/05 08:16:46;;;;;;;53.42;24.17;;;;;;;-3.30;100.00;100132.47;5000788;28;20415;-80
2023/12/05 08:19:20;;;;;;;57.13;24.40;;;;;;;-3.30;100.00;100129.81;4963620;28;20448;-79
2023/12/05 08:21:53;;;;;;;54.07;23.63;;;;;;;-3.23;100.00;100132.47;4991958;28;20418;-79
2023/12/05 08:24:26;;;;;;;46.55;21.52;;;;;;;-3.14;100.00;100127.78;5005994;28;20433;-79
2023/12/05 08:27:00;;;;;;;55.40;24.30;;;;;;;-3.17;100.00;100125.53;4984520;28;20436;-79
2023/12/05 08:29:33;;;;;;;57.10;23.67;;;;;;;-3.14;100.00;100120.59;4988289;28;20435;-79
2023/12/05 08:32:07;;;;;;;53.00;23.60;;;;;;;-2.99;100.00;100131.06;4985693;28;20415;-79
2023/12/05 08:34:42;;;;;;;54.42;23.65;;;;;;;-3.25;100.00;100121.22;4990134;28;20420;-79
2023/12/05 08:37:15;;;;;;;55.97;23.77;;;;;;;-3.12;100.00;100129.22;4990796;28;20998;-79
2023/12/05 08:39:43;;;;;;;53.28;23.98;;;;;;;-3.15;100.00;100129.63;4985518;28;20421;-79
2023/12/05 08:42:17;;;;;;;55.58;24.08;;;;;;;-3.02;100.00;100131.47;4986305;28;21020;-79
2023/12/05 08:44:50;;;;;;;51.20;23.63;;;;;;;-2.96;100.00;100141.28;4989069;28;20435;-79
2023/12/05 08:47:18;;;;;;;51.47;23.38;;;;;;;-2.93;100.00;100130.25;4996491;28;20415;-79
2023/12/05 08:49:48;;;;;;;51.67;23.05;;;;;;;-2.94;100.00;100133.09;4991238;28;20834;-79
2023/12/05 08:52:21;;;;;;;53.33;23.65;;;;;;;-2.88;100.00;100137.63;4987499;28;20420;-79
2023/12/05 08:54:54;;;;;;;51.22;23.02;;;;;;;-2.98;100.00;100131.91;4994402;28;20422;-79
2023/12/05 08:57:27;;;;;;;48.58;22.77;;;;;;;-2.93;100.00;100124.94;4990372;28;20443;-79
2023/12/05 09:00:02;;;;;;;50.60;22.92;;;;;;;-3.09;100.00;100128.81;4986556;28;20416;-80
2023/12/05 09:02:35;;;;;;;58.10;24.90;;;;;;;-3.09;100.00;100128.81;4992371;28;20535;-80
2023/12/05 09:05:06;;;;;;;53.15;23.33;;;;;;;-3.04;100.00;100130.03;4991390;28;20437;-80
2023/12/05 09:07:39;;;;;;;54.47;24.58;;;;;;;-3.00;100.00;100131.25;4991976;28;21084;-79
2023/12/05 09:10:12;;;;;;;51.08;24.55;;;;;;;-3.05;100.00;100131.88;4988599;28;20526;-80
2023/12/05 09:12:41;;;;;;;55.45;24.35;;;;;;;-3.00;100.00;100136.59;4984844;28;21350;-79
2023/12/05 09:15:14;;;;;;;53.50;25.23;;;;;;;-2.98;100.00;100142.53;4991914;28;20441;-79
2023/12/05 09:17:47;;;;;;;55.50;24.33;;;;;;;-2.89;100.00;100143.97;4987327;28;20411;-79
2023/12/05 09:20:21;;;;;;;54.80;24.53;;;;;;;-2.85;100.00;100145.19;4964519;28;20505;-79
2023/12/05 09:22:55;;;;;;;54.65;24.02;;;;;;;-2.88;100.00;100147.47;4989250;28;20425;-79
2023/12/05 09:25:28;;;;;;;49.90;24.20;;;;;;;-2.91;100.00;100146.03;4991802;28;20432;-79
2023/12/05 09:28:02;;;;;;;53.00;23.47;;;;;;;-2.92;100.00;100147.03;4991436;28;20946;-79
2023/12/05 09:30:35;;;;;;;53.50;24.02;;;;;;;-2.94;100.00;100154.41;4996399;28;20442;-79
2023/12/05 09:33:04;;;;;;;50.13;23.35;;;;;;;-2.80;100.00;100141.94;4988422;28;20419;-79
2023/12/05 09:35:39;;;;;;;50.78;23.60;;;;;;;-2.75;100.00;100150.09;4989123;28;20432;-80
2023/12/05 09:38:12;;;;;;;52.13;23.10;;;;;;;-2.50;100.00;100141.50;4992073;28;20435;-80
2023/12/05 09:40:46;;;;;;;55.83;24.38;;;;;;;-2.64;100.00;100141.53;4982862;28;20428;-79
2023/12/05 09:43:23;;;;;;;53.43;24.03;;;;;;;-2.56;100.00;100143.94;4982738;28;20929;-79
2023/12/05 09:45:59;;;;;;;52.55;24.23;;;;;;;-2.67;100.00;100147.25;4990384;28;20448;-79
2023/12/05 09:48:41;;;;;;;50.93;24.40;;;;;;;-2.57;100.00;100154.81;5003022;28;21678;-79
2023/12/05 09:51:16;;;;;;;54.00;25.27;;;;;;;-2.38;100.00;100145.16;4983794;28;20925;-80
2023/12/05 09:53:51;;;;;;;50.17;22.80;;;;;;;-2.38;100.00;100149.69;4993300;28;20514;-80
2023/12/05 09:56:25;;;;;;;56.05;24.67;;;;;;;-2.30;100.00;100139.63;4990000;28;20435;-80
2023/12/05 09:59:00;;;;;;;50.27;23.07;;;;;;;-2.15;100.00;100141.25;4988322;28;20428;-80
2023/12/05 10:01:35;;;;;;;53.63;23.88;;;;;;;-2.23;100.00;100135.09;4982841;28;20437;-80
2023/12/05 10:04:11;;;;;;;50.50;23.70;;;;;;;-2.26;100.00;100137.38;4982053;28;20430;-80
2023/12/05 10:06:48;;;;;;;48.58;22.27;;;;;;;-2.16;100.00;100128.94;4986083;28;20835;-80
2023/12/05 10:09:20;;;;;;;49.65;23.88;;;;;;;-2.11;100.00;100126.47;4984483;28;20436;-80
2023/12/05 10:11:53;;;;;;;48.53;23.10;;;;;;;-2.15;100.00;100126.06;4984657;28;20516;-80
2023/12/05 10:14:27;;;;;;;55.67;25.10;;;;;;;-2.24;100.00;100130.81;4983630;28;20424;-80
2023/12/05 10:17:02;;;;;;;50.70;23.73;;;;;;;-2.13;100.00;100125.84;4988095;28;20429;-80
2023/12/05 10:19:31;;;;;;;48.85;22.95;;;;;;;-2.07;100.00;100120.50;4961136;28;22032;-80
2023/12/05 10:22:02;;;;;;;51.47;23.10;;;;;;;-1.79;100.00;100122.03;4985037;28;20434;-80
2023/12/05 10:24:42;;;;;;;52.33;23.23;;;;;;;-2.11;100.00;100127.28;4989212;28;20427;-80
2023/12/05 10:27:17;;;;;;;47.33;22.63;;;;;;;-2.19;100.00;100121.34;4984635;28;20418;-80
2023/12/05 10:29:50;;;;;;;51.07;23.87;;;;;;;-2.12;100.00;100122.97;4983875;28;20432;-80
2023/12/05 10:32:26;;;;;;;49.92;23.75;;;;;;;-2.12;100.00;100122.97;4992340;28;20411;-80
2023/12/05 10:35:01;;;;;;;50.28;23.80;;;;;;;-2.21;100.00;100116.22;4986776;28;20432;-80
2023/12/05 10:37:31;;;;;;;52.03;23.55;;;;;;;-2.15;100.00;100120.72;4984390;28;21150;-80
2023/12/05 10:40:05;;;;;;;50.95;23.27;;;;;;;-2.07;100.00;100115.16;5000585;28;20436;-80
2023/12/05 10:42:38;;;;;;;53.05;23.48;;;;;;;-2.39;100.00;100111.53;4980110;28;21333;-81
2023/12/05 10:45:12;;;;;;;48.67;23.52;;;;;;;-2.30;100.00;100112.16;4987869;28;20417;-81
2023/12/05 10:47:46;;;;;;;50.45;23.48;;;;;;;-2.14;100.00;100110.88;4986706;28;20438;-80
2023/12/05 10:50:20;;;;;;;51.42;23.75;;;;;;;-2.14;100.00;100109.03;4985097;28;20428;-81
2023/12/05 10:52:55;;;;;;;50.28;24.05;;;;;;;-2.25;100.00;100107.84;4994047;28;20428;-80
2023/12/05 10:55:29;;;;;;;50.33;23.45;;;;;;;-2.33;100.00;100100.06;4990052;28;20434;-81
2023/12/05 10:58:03;;;;;;;51.15;24.85;;;;;;;-2.33;100.00;100107.25;4987318;28;20425;-81
2023/12/05 11:00:37;;;;;;;48.20;23.35;;;;;;;-2.30;100.00;100098.81;4997146;28;20416;-81
2023/12/05 11:03:13;;;;;;;53.88;24.17;;;;;;;-2.35;100.00;100090.63;4989389;28;21668;-82
2023/12/05 11:05:46;;;;;;;48.75;22.77;;;;;;;-2.28;100.00;100096.75;4989190;28;20436;-81
2023/12/05 11:08:21;;;;;;;51.88;24.45;;;;;;;-2.37;100.00;100092.69;4990872;28;20447;-80
2023/12/05 11:10:57;;;;;;;50.88;23.40;;;;;;;-2.37;100.00;100088.19;4982175;28;20427;-81
2023/12/05 11:13:25;;;;;;;50.95;23.38;;;;;;;-2.31;100.00;100089.19;4984490;28;20442;-81
2023/12/05 11:16:03;;;;;;;51.37;23.63;;;;;;;-2.10;100.00;100096.94;4988786;28;20432;-81
2023/12/05 11:18:39;;;;;;;49.25;22.90;;;;;;;-2.15;100.00;100088.72;4994764;28;20448;-81
2023/12/05 11:21:43;;;;;;;50.63;24.05;;;;;;;-2.06;100.00;100097.31;4962066;28;20429;-81
2023/12/05 11:24:55;;;;;;;50.55;23.80;;;;;;;-2.19;100.00;100095.50;4990988;28;21657;-81
2023/12/05 11:27:43;;;;;;;49.30;23.25;;;;;;;-2.12;100.00;100095.50;4987639;28;20424;-81